createdAt,value
2022-09-07T00:02:01.789Z,100296.22
2022-09-07T00:04:28.437Z,100292.72
2022-09-07T00:06:55.105Z,100296.84
2022-09-07T00:09:21.695Z,100294.75
2022-09-07T00:11:48.251Z,100294.75
2022-09-07T00:14:14.809Z,100299.50
2022-09-07T00:16:41.450Z,100300.13
2022-09-07T00:19:08.099Z,100306.91
2022-09-07T00:21:34.699Z,100300.97
2022-09-07T00:24:01.249Z,100309.94
2022-09-07T00:26:30.169Z,100301.22
2022-09-07T00:28:59.497Z,100296.53
2022-09-07T00:31:27.120Z,100287.88
2022-09-07T00:33:54.630Z,100293.44
2022-09-07T00:36:22.521Z,100282.97
2022-09-07T00:38:49.502Z,100295.06
2022-09-07T00:41:17.589Z,100293.88
2022-09-07T00:43:50.433Z,100303.28
2022-09-07T00:46:19.584Z,100294.72
2022-09-07T00:48:50.340Z,100290.25
2022-09-07T00:51:31.443Z,100289.97
2022-09-07T00:54:05.482Z,100286.72
2022-09-07T00:56:34.501Z,100283.53
2022-09-07T00:59:01.767Z,100282.94
2022-09-07T01:01:28.720Z,100277.25
2022-09-07T01:03:58.730Z,100274.69
2022-09-07T01:06:29.598Z,100277.16
2022-09-07T01:08:59.408Z,100277.66
2022-09-07T01:11:26.254Z,100276.25
2022-09-07T01:13:54.770Z,100284.59
2022-09-07T01:16:58.580Z,100307.28
2022-09-07T01:19:31.203Z,100308.25
2022-09-07T01:22:13.078Z,100296.59
2022-09-07T01:25:02.673Z,100305.16
2022-09-07T01:27:53.562Z,100295.78
2022-09-07T01:30:23.054Z,100289.78
2022-09-07T01:33:04.237Z,100287.69
2022-09-07T01:35:54.100Z,100286.88
2022-09-07T01:38:36.783Z,100266.03
2022-09-07T01:41:21.438Z,100271.69
2022-09-07T01:44:05.768Z,100266.50
2022-09-07T01:46:39.791Z,100264.44
2022-09-07T01:49:11.980Z,100257.19
2022-09-07T01:51:43.866Z,100248.56
2022-09-07T01:54:18.847Z,100229.91
2022-09-07T01:56:48.035Z,100233.94
2022-09-07T01:59:24.629Z,100243.91
2022-09-07T02:02:00.929Z,100246.56
2022-09-07T02:04:39.258Z,100252.22
2022-09-07T02:07:14.065Z,100267.53
2022-09-07T02:09:54.434Z,100276.38
2022-09-07T02:12:30.520Z,100277.72
2022-09-07T02:15:02.824Z,100296.25
2022-09-07T02:17:34.092Z,100313.75
2022-09-07T02:20:11.511Z,100324.16
2022-09-07T02:22:45.603Z,100343.53
2022-09-07T02:25:19.570Z,100352.94
2022-09-07T02:27:50.262Z,100341.78
2022-09-07T02:30:17.461Z,100346.69
2022-09-07T02:32:44.210Z,100330.88
2022-09-07T02:35:10.911Z,100329.66
2022-09-07T02:37:38.451Z,100340.31
2022-09-07T02:40:05.597Z,100349.38
2022-09-07T02:42:34.645Z,100368.91
2022-09-07T02:45:06.308Z,100413.00
2022-09-07T02:47:42.043Z,100398.31
2022-09-07T02:50:08.529Z,100377.97
2022-09-07T02:53:02.349Z,100383.31
2022-09-07T02:55:31.834Z,100363.59
2022-09-07T02:58:14.622Z,100360.06
2022-09-07T03:01:03.986Z,100358.94
2022-09-07T03:03:50.178Z,100353.06
2022-09-07T03:06:26.487Z,100328.84
2022-09-07T03:08:55.933Z,100321.59
2022-09-07T03:11:22.970Z,100319.06
2022-09-07T03:13:49.531Z,100314.34
2022-09-07T03:16:16.534Z,100307.38
2022-09-07T03:18:44.963Z,100297.97
2022-09-07T03:21:11.649Z,100288.41
2022-09-07T03:23:38.743Z,100274.88
2022-09-07T03:26:05.489Z,100261.50
2022-09-07T03:28:32.175Z,100258.19
2022-09-07T03:31:00.435Z,100269.56
2022-09-07T03:33:27.100Z,100262.72
2022-09-07T03:35:59.869Z,100242.41
2022-09-07T03:38:26.620Z,100243.34
2022-09-07T03:41:07.594Z,100239.00
2022-09-07T03:43:34.960Z,100239.88
2022-09-07T03:46:05.860Z,100241.38
2022-09-07T03:48:34.168Z,100235.81
2022-09-07T03:51:07.197Z,100238.38
2022-09-07T03:53:38.805Z,100229.22
2022-09-07T03:56:12.370Z,100238.06
2022-09-07T03:58:39.215Z,100238.25
2022-09-07T04:01:15.887Z,100237.00
2022-09-07T04:03:43.723Z,100241.41
2022-09-07T04:06:10.444Z,100246.66
2022-09-07T04:08:38.271Z,100254.50
2022-09-07T04:11:06.651Z,100252.38
2022-09-07T04:13:35.265Z,100255.50
2022-09-07T04:16:12.413Z,100255.41
2022-09-07T04:18:38.954Z,100241.00
2022-09-07T04:21:05.667Z,100241.34
2022-09-07T04:23:32.291Z,100240.09
2022-09-07T04:25:59.363Z,100249.09
2022-09-07T04:28:26.041Z,100245.75
2022-09-07T04:30:52.665Z,100253.78
2022-09-07T04:33:19.684Z,100255.47
2022-09-07T04:35:46.212Z,100256.13
2022-09-07T04:38:15.162Z,100244.94
2022-09-07T04:40:42.294Z,100236.94
2022-09-07T04:43:09.548Z,100259.81
2022-09-07T04:45:37.097Z,100250.91
2022-09-07T04:48:04.362Z,100247.88
2022-09-07T04:50:30.941Z,100249.13
2022-09-07T04:52:57.543Z,100249.50
2022-09-07T04:55:24.188Z,100246.88
2022-09-07T04:57:50.912Z,100245.63
2022-09-07T05:00:17.673Z,100251.88
2022-09-07T05:02:44.496Z,100251.97
2022-09-07T05:05:11.269Z,100264.25
2022-09-07T05:07:37.908Z,100268.00
2022-09-07T05:10:04.900Z,100270.31
2022-09-07T05:12:31.511Z,100272.91
2022-09-07T05:14:58.238Z,100274.72
2022-09-07T05:17:24.845Z,100279.28
2022-09-07T05:19:51.406Z,100287.78
2022-09-07T05:22:19.231Z,100281.47
2022-09-07T05:24:47.601Z,100280.88
2022-09-07T05:27:14.228Z,100273.84
2022-09-07T05:32:27.318Z,100277.88
2022-09-07T05:34:53.946Z,100290.81
2022-09-07T05:37:20.799Z,100294.88
2022-09-07T05:39:48.117Z,100284.72
2022-09-07T05:42:14.911Z,100291.47
2022-09-07T05:47:13.113Z,100289.63
2022-09-07T05:49:39.835Z,100284.22
2022-09-07T05:52:06.799Z,100297.38
2022-09-07T05:54:33.384Z,100292.56
2022-09-07T05:57:00.022Z,100293.84
2022-09-07T05:59:26.595Z,100293.41
2022-09-07T06:01:53.293Z,100294.09
2022-09-07T06:04:20.012Z,100296.84
2022-09-07T06:07:04.578Z,100301.31
2022-09-07T06:09:33.251Z,100298.16
2022-09-07T06:11:59.900Z,100299.63
2022-09-07T06:14:26.455Z,100297.56
2022-09-07T06:16:53.661Z,100300.06
2022-09-07T06:19:20.284Z,100294.88
2022-09-07T06:21:46.833Z,100297.16
2022-09-07T06:24:13.710Z,100288.78
2022-09-07T06:26:40.240Z,100300.44
2022-09-07T06:29:06.846Z,100300.00
2022-09-07T06:31:33.611Z,100301.44
2022-09-07T06:34:00.512Z,100302.06
2022-09-07T06:36:28.130Z,100303.00
2022-09-07T06:38:56.137Z,100313.13
2022-09-07T06:44:16.208Z,100320.06
2022-09-07T06:49:29.387Z,100322.50
2022-09-07T06:51:56.066Z,100316.72
2022-09-07T06:57:09.764Z,100314.31
2022-09-07T06:59:37.540Z,100315.66
2022-09-07T07:02:06.116Z,100316.44
2022-09-07T07:04:37.703Z,100324.88
2022-09-07T07:07:06.562Z,100312.16
2022-09-07T07:09:33.106Z,100326.31
2022-09-07T07:11:59.626Z,100334.69
2022-09-07T07:14:26.866Z,100326.47
2022-09-07T07:16:54.030Z,100318.94
2022-09-07T07:19:20.582Z,100330.56
2022-09-07T07:22:14.370Z,100328.44
2022-09-07T07:24:33.702Z,100332.53
2022-09-07T07:27:00.292Z,100329.75
2022-09-07T07:29:28.279Z,100328.75
2022-09-07T07:31:55.152Z,100331.78
2022-09-07T07:34:21.958Z,100328.25
2022-09-07T07:36:48.514Z,100322.66
2022-09-07T07:42:03.570Z,100325.44
2022-09-07T07:44:32.199Z,100328.19
2022-09-07T07:46:58.756Z,100338.94
2022-09-07T07:49:25.405Z,100350.56
2022-09-07T07:54:42.724Z,100356.13
2022-09-07T07:57:09.460Z,100350.63
2022-09-07T07:59:36.037Z,100358.78
2022-09-07T08:02:04.791Z,100359.38
2022-09-07T08:04:35.771Z,100354.16
2022-09-07T08:07:09.646Z,100358.06
2022-09-07T08:09:45.595Z,100358.47
2022-09-07T08:12:16.069Z,100371.97
2022-09-07T08:14:42.939Z,100368.28
2022-09-07T08:17:15.025Z,100372.66
2022-09-07T08:19:42.019Z,100372.22
2022-09-07T08:22:10.739Z,100376.59
2022-09-07T08:24:37.451Z,100368.88
2022-09-07T08:27:04.633Z,100368.13
2022-09-07T08:29:34.455Z,100368.31
2022-09-07T08:32:03.724Z,100376.41
2022-09-07T08:34:30.240Z,100371.28
2022-09-07T08:36:56.744Z,100374.00
2022-09-07T08:39:23.261Z,100374.41
2022-09-07T08:42:07.821Z,100388.94
2022-09-07T08:44:57.517Z,100393.63
2022-09-07T08:47:45.159Z,100395.94
2022-09-07T08:50:18.921Z,100397.03
2022-09-07T08:53:08.206Z,100383.34
2022-09-07T08:55:40.270Z,100385.50
2022-09-07T08:58:32.258Z,100392.84
2022-09-07T09:07:01.231Z,100398.78
2022-09-07T09:09:38.713Z,100400.47
2022-09-07T09:12:17.366Z,100401.81
2022-09-07T09:14:49.962Z,100399.09
2022-09-07T09:17:42.210Z,100406.06
2022-09-07T09:20:30.823Z,100392.16
2022-09-07T09:23:02.317Z,100395.31
2022-09-07T09:25:33.923Z,100402.72
2022-09-07T09:28:00.943Z,100392.63
2022-09-07T09:30:28.135Z,100389.53
2022-09-07T09:33:26.348Z,100385.06
2022-09-07T09:35:58.889Z,100384.06
2022-09-07T09:38:39.537Z,100389.59
2022-09-07T09:41:08.789Z,100383.91
2022-09-07T09:43:41.402Z,100383.16
2022-09-07T09:46:33.770Z,100371.53
2022-09-07T09:49:04.889Z,100385.59
2022-09-07T09:54:33.426Z,100371.81
2022-09-07T09:57:00.246Z,100363.59
2022-09-07T10:05:21.170Z,100360.91
2022-09-07T10:07:52.703Z,100362.47
2022-09-07T10:10:19.388Z,100353.72
2022-09-07T10:12:46.534Z,100346.84
2022-09-07T10:15:50.064Z,100344.06
2022-09-07T10:18:32.448Z,100341.16
2022-09-07T10:21:12.225Z,100346.63
2022-09-07T10:23:38.792Z,100341.16
2022-09-07T10:26:24.944Z,100332.13
2022-09-07T10:29:12.287Z,100327.63
2022-09-07T10:31:58.643Z,100335.00
2022-09-07T10:34:43.441Z,100322.31
2022-09-07T10:37:12.994Z,100323.59
2022-09-07T10:39:42.707Z,100310.94
2022-09-07T10:42:09.162Z,100302.25
2022-09-07T10:44:38.723Z,100312.66
2022-09-07T10:47:31.747Z,100309.78
2022-09-07T10:50:22.408Z,100310.34
2022-09-07T10:53:36.933Z,100306.25
2022-09-07T10:56:12.806Z,100306.69
2022-09-07T10:59:21.747Z,100306.50
2022-09-07T11:02:19.416Z,100303.91
2022-09-07T11:04:57.333Z,100304.44
2022-09-07T11:07:45.661Z,100306.94
2022-09-07T11:10:22.858Z,100289.56
2022-09-07T11:12:51.581Z,100287.91
2022-09-07T11:15:31.335Z,100289.97
2022-09-07T11:18:27.812Z,100295.78
2022-09-07T11:20:58.796Z,100290.31
2022-09-07T11:23:31.576Z,100282.88
2022-09-07T11:26:11.244Z,100281.75
2022-09-07T11:31:48.951Z,100284.88
2022-09-07T11:34:26.014Z,100287.03
2022-09-07T11:37:00.864Z,100283.50
2022-09-07T11:39:35.284Z,100295.81
2022-09-07T11:45:06.112Z,100275.13
2022-09-07T11:47:42.142Z,100272.91
2022-09-07T11:50:19.044Z,100271.06
2022-09-07T11:53:00.912Z,100268.03
2022-09-07T11:55:29.580Z,100271.09
2022-09-07T11:58:14.780Z,100277.34
2022-09-07T12:00:59.402Z,100262.25
2022-09-07T12:03:33.457Z,100255.19
2022-09-07T12:06:15.197Z,100262.78
2022-09-07T12:09:00.457Z,100255.94
2022-09-07T12:11:45.738Z,100251.09
2022-09-07T12:14:19.286Z,100251.16
2022-09-07T12:17:04.462Z,100234.88
2022-09-07T12:19:31.228Z,100241.00
2022-09-07T12:21:59.298Z,100229.69
2022-09-07T12:24:34.994Z,100229.00
2022-09-07T12:27:03.558Z,100220.16
2022-09-07T12:29:30.355Z,100214.44
2022-09-07T12:32:07.352Z,100218.78
2022-09-07T12:35:03.798Z,100214.88
2022-09-07T12:37:38.949Z,100230.53
2022-09-07T12:40:47.058Z,100209.19
2022-09-07T12:43:16.462Z,100205.22
2022-09-07T12:45:42.955Z,100217.81
2022-09-07T12:48:15.634Z,100219.09
2022-09-07T12:51:16.716Z,100223.91
2022-09-07T12:53:43.435Z,100208.41
2022-09-07T12:56:28.795Z,100194.38
2022-09-07T12:59:21.525Z,100206.38
2022-09-07T13:02:00.279Z,100206.84
2022-09-07T13:05:06.132Z,100211.81
2022-09-07T13:08:10.140Z,100219.16
2022-09-07T13:10:42.434Z,100211.34
2022-09-07T13:13:15.137Z,100220.78
2022-09-07T13:15:48.870Z,100230.53
2022-09-07T13:18:28.068Z,100240.88
2022-09-07T13:21:06.756Z,100240.00
2022-09-07T13:27:00.762Z,100256.78
2022-09-07T13:29:56.700Z,100256.78
2022-09-07T13:35:24.139Z,100263.88
2022-09-07T13:37:58.694Z,100260.59
2022-09-07T13:40:28.397Z,100267.97
2022-09-07T13:42:55.394Z,100261.16
2022-09-07T13:45:30.260Z,100255.47
2022-09-07T13:47:56.651Z,100263.06
2022-09-07T13:50:41.698Z,100261.88
2022-09-07T13:53:17.753Z,100249.66
2022-09-07T13:55:44.108Z,100244.16
2022-09-07T13:58:15.596Z,100256.63
2022-09-07T14:01:08.556Z,100245.44
2022-09-07T14:03:40.238Z,100242.81
2022-09-07T14:06:13.661Z,100246.66
2022-09-07T14:08:40.721Z,100234.25
2022-09-07T14:11:17.389Z,100231.78
2022-09-07T14:13:43.757Z,100231.22
2022-09-07T14:16:10.332Z,100235.50
2022-09-07T14:18:39.286Z,100228.97
2022-09-07T14:21:09.090Z,100234.22
2022-09-07T14:23:36.624Z,100229.75
2022-09-07T14:26:22.410Z,100224.03
2022-09-07T14:28:50.645Z,100226.13
2022-09-07T14:31:19.601Z,100226.38
2022-09-07T14:33:59.131Z,100229.13
2022-09-07T14:36:48.266Z,100227.25
2022-09-07T14:39:15.806Z,100224.47
2022-09-07T14:41:43.266Z,100228.78
2022-09-07T14:44:29.960Z,100221.88
2022-09-07T14:46:57.558Z,100219.19
2022-09-07T14:49:24.075Z,100224.69
2022-09-07T14:51:51.814Z,100221.06
2022-09-07T14:54:20.068Z,100216.06
2022-09-07T14:56:59.678Z,100213.38
2022-09-07T14:59:38.433Z,100209.09
2022-09-07T15:02:27.020Z,100207.06
2022-09-07T15:05:12.027Z,100202.50
2022-09-07T15:07:39.388Z,100203.25
2022-09-07T15:10:14.975Z,100193.56
2022-09-07T15:12:43.022Z,100198.03
2022-09-07T15:15:10.613Z,100197.50
2022-09-07T15:17:44.819Z,100185.44
2022-09-07T15:20:30.625Z,100189.94
2022-09-07T15:22:57.143Z,100193.03
2022-09-07T15:25:23.586Z,100176.63
2022-09-07T15:27:50.356Z,100177.88
2022-09-07T15:30:17.435Z,100172.22
2022-09-07T15:32:44.295Z,100162.88
2022-09-07T15:35:10.932Z,100156.03
2022-09-07T15:40:26.156Z,100150.22
2022-09-07T15:43:00.560Z,100148.88
2022-09-07T15:45:27.418Z,100144.94
2022-09-07T15:47:54.235Z,100150.56
2022-09-07T15:50:23.227Z,100149.38
2022-09-07T15:52:49.748Z,100147.97
2022-09-07T15:55:17.580Z,100142.34
2022-09-07T15:58:02.237Z,100145.97
2022-09-07T16:00:31.233Z,100136.44
2022-09-07T16:03:06.198Z,100143.41
2022-09-07T16:05:33.581Z,100137.41
2022-09-07T16:10:53.556Z,100131.03
2022-09-07T16:13:20.756Z,100134.47
2022-09-07T16:15:48.780Z,100140.84
2022-09-07T16:18:17.403Z,100136.81
2022-09-07T16:20:45.017Z,100138.22
2022-09-07T16:23:14.311Z,100139.97
2022-09-07T16:25:42.241Z,100131.69
2022-09-07T16:28:09.382Z,100131.03
2022-09-07T16:30:39.387Z,100136.47
2022-09-07T16:33:06.083Z,100135.59
2022-09-07T16:35:32.863Z,100120.69
2022-09-07T16:40:46.410Z,100130.94
2022-09-07T16:43:12.916Z,100133.53
2022-09-07T16:48:25.948Z,100130.00
2022-09-07T16:50:58.929Z,100128.59
2022-09-07T16:53:29.120Z,100126.06
2022-09-07T16:56:03.510Z,100119.41
2022-09-07T16:58:35.982Z,100109.06
2022-09-07T17:01:03.497Z,100116.78
2022-09-07T17:03:30.159Z,100126.13
2022-09-07T17:05:59.653Z,100117.78
2022-09-07T17:08:26.559Z,100113.47
2022-09-07T17:10:59.608Z,100112.25
2022-09-07T17:13:26.410Z,100113.72
2022-09-07T17:15:52.922Z,100114.44
2022-09-07T17:19:28.820Z,100120.53
2022-09-07T17:21:06.462Z,100120.16
2022-09-07T17:23:41.955Z,100115.88
2022-09-07T17:26:18.369Z,100119.56
2022-09-07T17:28:48.615Z,100119.75
2022-09-07T17:34:07.219Z,100121.72
2022-09-07T17:36:34.440Z,100111.81
2022-09-07T17:39:18.434Z,100109.44
2022-09-07T17:41:47.145Z,100110.13
2022-09-07T17:44:13.744Z,100115.56
2022-09-07T17:46:40.318Z,100117.78
2022-09-07T17:49:11.970Z,100114.78
2022-09-07T17:51:38.360Z,100119.94
2022-09-07T17:54:12.938Z,100117.28
2022-09-07T17:56:40.806Z,100121.50
2022-09-07T18:01:55.101Z,100128.78
2022-09-07T18:04:22.125Z,100127.25
2022-09-07T18:06:48.806Z,100128.97
2022-09-07T18:09:15.728Z,100123.34
2022-09-07T18:11:45.072Z,100132.53
2022-09-07T18:14:14.093Z,100133.50
2022-09-07T18:16:40.920Z,100141.31
2022-09-07T18:19:08.583Z,100138.75
2022-09-07T18:21:37.619Z,100137.25
2022-09-07T18:24:07.481Z,100131.53
2022-09-07T18:26:38.289Z,100128.97
2022-09-07T18:29:13.204Z,100117.69
2022-09-07T18:31:45.926Z,100110.59
2022-09-07T18:34:13.065Z,100117.38
2022-09-07T18:36:43.894Z,100125.50
2022-09-07T18:39:10.843Z,100133.31
2022-09-07T18:41:40.840Z,100134.28
2022-09-07T18:46:57.023Z,100134.75
2022-09-07T18:49:25.015Z,100137.75
2022-09-07T18:54:39.594Z,100135.47
2022-09-07T18:57:07.050Z,100136.69
2022-09-07T18:59:33.897Z,100137.22
2022-09-07T19:02:04.366Z,100129.56
2022-09-07T19:07:20.667Z,100132.53
2022-09-07T19:09:48.103Z,100123.44
2022-09-07T19:12:15.174Z,100117.41
2022-09-07T19:14:42.270Z,100112.63
2022-09-07T19:17:10.933Z,100124.00
2022-09-07T19:19:38.796Z,100132.19
2022-09-07T19:22:05.910Z,100138.31
2022-09-07T19:24:33.152Z,100136.56
2022-09-07T19:27:01.069Z,100135.66
2022-09-07T19:29:28.351Z,100136.94
2022-09-07T19:32:04.103Z,100135.66
2022-09-07T19:34:35.482Z,100134.06
2022-09-07T19:37:03.287Z,100122.63
2022-09-07T19:39:29.950Z,100111.84
2022-09-07T19:41:56.642Z,100109.66
2022-09-07T19:44:23.124Z,100115.69
2022-09-07T19:46:49.947Z,100111.38
2022-09-07T19:49:16.946Z,100113.25
2022-09-07T19:51:43.513Z,100104.53
2022-09-07T19:54:11.592Z,100099.97
2022-09-07T19:56:39.821Z,100096.69
2022-09-07T19:59:06.943Z,100090.94
2022-09-07T20:01:35.011Z,100083.72
2022-09-07T20:04:07.394Z,100091.19
2022-09-07T20:06:34.752Z,100091.75
2022-09-07T20:09:01.714Z,100081.72
2022-09-07T20:11:28.821Z,100080.19
2022-09-07T20:13:57.022Z,100080.28
2022-09-07T20:16:24.895Z,100062.81
2022-09-07T20:18:51.704Z,100073.38
2022-09-07T20:21:21.013Z,100060.13
2022-09-07T20:23:48.116Z,100056.03
2022-09-07T20:26:16.718Z,100058.84
2022-09-07T20:28:43.732Z,100058.25
2022-09-07T20:31:17.980Z,100069.03
2022-09-07T20:33:46.397Z,100053.81
2022-09-07T20:36:15.542Z,100045.94
2022-09-07T20:38:48.219Z,100041.84
2022-09-07T20:41:16.741Z,100041.19
2022-09-07T20:43:43.466Z,100037.38
2022-09-07T20:46:10.245Z,100039.56
2022-09-07T20:48:37.951Z,100044.94
2022-09-07T20:51:08.243Z,100048.91
2022-09-07T20:53:35.880Z,100048.91
2022-09-07T20:56:08.321Z,100040.31
2022-09-07T20:58:35.377Z,100040.75
2022-09-07T21:01:02.931Z,100046.00
2022-09-07T21:03:29.813Z,100053.00
2022-09-07T21:06:01.519Z,100054.00
2022-09-07T21:08:28.045Z,100053.00
2022-09-07T21:10:54.630Z,100048.63
2022-09-07T21:13:21.062Z,100050.78
2022-09-07T21:15:47.602Z,100050.91
2022-09-07T21:18:17.890Z,100051.28
2022-09-07T21:21:18.423Z,100053.44
2022-09-07T21:23:40.170Z,100058.50
2022-09-07T21:26:06.657Z,100062.91
2022-09-07T21:28:33.174Z,100055.69
2022-09-07T21:31:05.304Z,100059.38
2022-09-07T21:33:35.223Z,100059.09
2022-09-07T21:36:13.018Z,100071.28
2022-09-07T21:38:41.234Z,100055.72
2022-09-07T21:41:13.970Z,100054.19
2022-09-07T21:43:41.020Z,100064.13
2022-09-07T21:46:14.152Z,100058.25
2022-09-07T21:48:40.683Z,100053.50
2022-09-07T21:51:07.851Z,100042.75
2022-09-07T21:53:35.276Z,100045.44
2022-09-07T21:56:04.746Z,100044.09
2022-09-07T21:58:31.984Z,100040.09
2022-09-07T22:01:00.589Z,100031.28
2022-09-07T22:03:27.329Z,100040.53
2022-09-07T22:05:53.923Z,100041.75
2022-09-07T22:08:20.667Z,100032.44
2022-09-07T22:10:47.194Z,100036.16
2022-09-07T22:13:13.673Z,100031.84
2022-09-07T22:15:41.472Z,100035.28
2022-09-07T22:18:11.899Z,100029.53
2022-09-07T22:20:38.805Z,100035.78
2022-09-07T22:23:05.563Z,100032.03
2022-09-07T22:25:32.724Z,100033.34
2022-09-07T22:27:59.423Z,100036.03
2022-09-07T22:30:26.371Z,100035.78
2022-09-07T22:32:53.113Z,100033.56
2022-09-07T22:35:20.259Z,100033.78
2022-09-07T22:37:46.735Z,100025.44
2022-09-07T22:40:14.723Z,100019.25
2022-09-07T22:42:41.791Z,100016.28
2022-09-07T22:45:08.927Z,100010.50
2022-09-07T22:47:35.422Z,99997.19
2022-09-07T22:50:01.906Z,99992.69
2022-09-07T22:52:28.378Z,99988.22
2022-09-07T22:54:55.934Z,99982.53
2022-09-07T22:57:23.334Z,99975.78
2022-09-07T22:59:49.829Z,99968.16
2022-09-07T23:02:16.297Z,99957.47
2022-09-07T23:04:43.041Z,99956.28
2022-09-07T23:07:09.715Z,99955.47
2022-09-07T23:09:36.203Z,99946.59
2022-09-07T23:12:02.979Z,99937.97
2022-09-07T23:14:29.518Z,99946.25
2022-09-07T23:16:56.065Z,99936.97
2022-09-07T23:19:22.662Z,99926.88
2022-09-07T23:21:49.289Z,99926.63
2022-09-07T23:24:17.906Z,99927.09
2022-09-07T23:26:44.741Z,99932.19
2022-09-07T23:29:12.972Z,99925.88
2022-09-07T23:31:40.509Z,99928.59
2022-09-07T23:34:07.792Z,99921.63
2022-09-07T23:36:34.473Z,99914.97
2022-09-07T23:39:01.411Z,99912.47
2022-09-07T23:41:28.663Z,99905.88
2022-09-07T23:43:55.851Z,99907.38
2022-09-07T23:46:23.034Z,99921.19
2022-09-07T23:48:50.407Z,99919.81
2022-09-07T23:51:22.795Z,99918.31
2022-09-07T23:53:50.522Z,99918.59
2022-09-07T23:56:17.222Z,99915.72
2022-09-07T23:58:43.951Z,99923.72
